Alpine, Oregon
Current Conditions -  °F | °C
As of 6:15 PM on Saturday 25 Oct 2014 (Local Time) from KCVO Reporting Station
Broken Clouds Broken Clouds  
Wind Chill: 54°   Ceiling: 7500
Heat Index: 54°   Visibility: 10mi
Dew Point: 46°   Wind: 13mph
Humidity: 77%   Direction: 250°WSW
Pressure: 29.79"   Gusts: 23mph
Location:  44.3398°N, 123.353°W
Report Text: KCVO 260115Z AUTO 25011G20KT 10SM FEW048 SCT060 BKN075 12/08 A2979 RMK AO1
Loading
Personal Weather Stations






























Interactive Weather Map New forecast layout! Learn more

10-Day Weather Forecast

Advertisements
Track Severe Weather on mobile